Time;durP1;ratioP1;P1;durP2;ratioP2;P2;SDS_P1;SDS_P2;PMS_P1;PMS_P2;Temp;Humidity;BMP_temperature;BMP_pressure;BME280_temperature;BME280_humidity;BME280_pressure;Samples;Min_cycle;Max_cycle;Signal;HPM_P1;HPM_P2
2022/03/09 00:00:20;;;;;;;4.50;2.93;;;-0.90;99.90;;;;;;5051749;28;21037;-49
2022/03/09 00:02:47;;;;;;;4.30;3.03;;;-0.90;99.90;;;;;;5049794;28;20519;-48
2022/03/09 00:05:14;;;;;;;2.13;2.03;;;-1.00;99.90;;;;;;5051813;28;20537;-49
2022/03/09 00:07:41;;;;;;;2.17;2.07;;;-1.00;99.90;;;;;;5052351;28;21063;-49
2022/03/09 00:10:09;;;;;;;2.50;2.40;;;-1.00;99.90;;;;;;5052101;28;20526;-49
2022/03/09 00:12:36;;;;;;;2.33;2.13;;;-1.10;99.90;;;;;;5052791;28;20474;-49
2022/03/09 00:15:03;;;;;;;2.53;2.10;;;-1.10;99.90;;;;;;5051187;28;20470;-49
2022/03/09 00:17:29;;;;;;;2.23;2.10;;;-1.10;99.90;;;;;;5050353;28;20538;-49
2022/03/09 00:19:56;;;;;;;3.10;2.40;;;-1.20;99.90;;;;;;5050642;28;21351;-49
2022/03/09 00:22:22;;;;;;;2.40;2.20;;;-1.20;99.90;;;;;;5045437;28;20569;-49
2022/03/09 00:24:50;;;;;;;2.57;2.47;;;-1.20;99.90;;;;;;5049397;28;20549;-49
2022/03/09 00:27:17;;;;;;;2.60;2.40;;;-1.20;99.90;;;;;;5042026;28;21057;-49
2022/03/09 00:29:43;;;;;;;2.20;2.00;;;-1.20;99.90;;;;;;5050008;28;20504;-49
2022/03/09 00:32:11;;;;;;;3.00;2.80;;;-1.30;99.90;;;;;;5050138;28;20545;-49
2022/03/09 00:34:38;;;;;;;3.20;2.67;;;-1.30;99.90;;;;;;5050835;28;20746;-49
2022/03/09 00:37:05;;;;;;;3.67;2.70;;;-1.30;99.90;;;;;;5050177;28;20569;-49
2022/03/09 00:39:31;;;;;;;2.80;2.60;;;-1.20;99.90;;;;;;5050543;28;20581;-49
2022/03/09 00:41:59;;;;;;;2.63;2.43;;;-1.40;99.90;;;;;;5049796;28;20538;-51
2022/03/09 00:44:26;;;;;;;5.70;3.27;;;-1.30;99.90;;;;;;5051159;28;20477;-49
2022/03/09 00:46:52;;;;;;;2.20;2.10;;;-1.30;99.90;;;;;;5039818;28;20553;-49
2022/03/09 00:49:19;;;;;;;2.37;2.17;;;-1.30;99.90;;;;;;5048987;28;20534;-49
2022/03/09 00:51:45;;;;;;;2.33;2.23;;;-1.30;99.90;;;;;;5050038;28;20557;-48
2022/03/09 00:54:12;;;;;;;2.30;2.20;;;-1.30;99.90;;;;;;5052154;28;20482;-49
2022/03/09 00:56:38;;;;;;;3.73;2.40;;;-1.40;99.90;;;;;;5050204;28;20553;-49
2022/03/09 00:59:06;;;;;;;2.60;2.40;;;-1.40;99.90;;;;;;5052070;28;20540;-48
2022/03/09 01:01:33;;;;;;;2.17;1.97;;;-1.30;99.90;;;;;;5051063;28;20596;-49
2022/03/09 01:04:00;;;;;;;2.60;2.40;;;-1.30;99.90;;;;;;5049749;28;21634;-49
2022/03/09 01:06:26;;;;;;;2.70;2.50;;;-1.30;99.90;;;;;;5048001;28;20537;-49
2022/03/09 01:08:53;;;;;;;2.67;2.47;;;-1.30;99.90;;;;;;5050325;28;20474;-49
2022/03/09 01:11:20;;;;;;;2.83;2.63;;;-1.30;99.90;;;;;;5047380;28;20546;-50
2022/03/09 01:13:47;;;;;;;2.93;2.57;;;-1.40;99.90;;;;;;5046262;28;20548;-49
2022/03/09 01:16:15;;;;;;;3.70;2.70;;;-1.40;99.90;;;;;;5051413;28;20525;-49
2022/03/09 01:18:41;;;;;;;2.57;2.37;;;-1.50;99.90;;;;;;5042655;28;20585;-50
2022/03/09 01:21:08;;;;;;;2.10;2.00;;;-1.50;99.90;;;;;;5045731;28;20532;-49
2022/03/09 01:23:35;;;;;;;3.63;2.93;;;-1.50;99.90;;;;;;5042997;28;20463;-50
2022/03/09 01:26:01;;;;;;;3.63;3.33;;;-1.50;99.90;;;;;;5046919;28;20438;-49
2022/03/09 01:28:28;;;;;;;3.50;2.93;;;-1.60;99.90;;;;;;5049459;28;20584;-50
2022/03/09 01:30:54;;;;;;;3.03;2.57;;;-1.50;99.90;;;;;;5047970;28;20549;-48
2022/03/09 01:33:22;;;;;;;3.60;2.60;;;-1.60;99.90;;;;;;5049031;28;20469;-48
2022/03/09 01:35:49;;;;;;;2.60;2.30;;;-1.70;99.90;;;;;;5048805;28;20593;-49
2022/03/09 01:38:15;;;;;;;3.10;2.90;;;-1.70;99.90;;;;;;5045616;28;20543;-48
2022/03/09 01:40:42;;;;;;;2.73;2.60;;;-1.60;99.90;;;;;;5048019;28;20485;-49
2022/03/09 01:43:08;;;;;;;3.63;2.80;;;-1.60;99.90;;;;;;5048424;28;20519;-48
2022/03/09 01:45:36;;;;;;;2.90;2.70;;;-1.60;99.90;;;;;;5048408;28;20461;-49
2022/03/09 01:48:02;;;;;;;3.33;2.70;;;-1.40;99.90;;;;;;5044202;28;20467;-49
2022/03/09 01:50:30;;;;;;;2.90;2.70;;;-1.50;99.90;;;;;;5050781;28;20523;-49
2022/03/09 01:52:57;;;;;;;2.90;2.80;;;-1.50;99.90;;;;;;5054519;28;20541;-50
2022/03/09 01:55:24;;;;;;;2.37;2.27;;;-1.50;99.90;;;;;;5050102;28;20489;-49
2022/03/09 01:57:50;;;;;;;2.43;2.33;;;-1.50;99.90;;;;;;5046641;28;20489;-49
2022/03/09 02:00:17;;;;;;;2.30;2.20;;;-1.50;99.90;;;;;;5054658;28;20565;-49
2022/03/09 02:02:44;;;;;;;2.50;2.30;;;-1.60;99.90;;;;;;5053451;28;21026;-50
2022/03/09 02:05:11;;;;;;;3.10;2.70;;;-1.60;99.90;;;;;;5046740;28;20554;-48
2022/03/09 02:10:25;;;;;;;2.70;2.50;;;-1.60;99.90;;;;;;5040774;28;20545;-48
2022/03/09 02:12:51;;;;;;;2.53;2.43;;;-1.70;99.90;;;;;;5053684;28;20993;-49
2022/03/09 02:15:18;;;;;;;10.67;2.63;;;-1.80;99.90;;;;;;5055344;28;20966;-49
2022/03/09 02:17:44;;;;;;;2.83;2.63;;;-1.80;99.90;;;;;;5053403;28;20472;-49
2022/03/09 02:20:11;;;;;;;2.47;2.33;;;-1.70;99.90;;;;;;5046440;28;20572;-49
2022/03/09 02:22:40;;;;;;;3.30;3.00;;;-1.70;99.90;;;;;;5053121;28;20532;-48
2022/03/09 02:25:09;;;;;;;2.80;2.60;;;-1.70;99.90;;;;;;5051070;28;20485;-49
2022/03/09 02:27:37;;;;;;;2.90;2.80;;;-1.70;99.90;;;;;;5040757;28;20925;-49
2022/03/09 02:30:04;;;;;;;6.00;3.20;;;-1.80;99.90;;;;;;5053933;28;20557;-48
2022/03/09 02:32:31;;;;;;;4.97;3.00;;;-1.70;99.90;;;;;;5043874;28;20485;-50
2022/03/09 02:34:58;;;;;;;3.30;3.10;;;-1.80;99.90;;;;;;5053455;28;20548;-49
2022/03/09 02:37:24;;;;;;;2.93;2.83;;;-1.90;99.90;;;;;;5054487;28;20541;-49
2022/03/09 02:39:52;;;;;;;2.90;2.70;;;-1.90;99.90;;;;;;5052470;28;20930;-50
2022/03/09 02:42:19;;;;;;;3.00;2.87;;;-2.00;99.90;;;;;;5047155;28;20540;-49
2022/03/09 02:44:45;;;;;;;2.50;2.40;;;-2.00;99.90;;;;;;5053248;28;20497;-49
2022/03/09 02:47:12;;;;;;;4.97;2.90;;;-1.90;99.90;;;;;;5053070;28;20477;-49
2022/03/09 02:49:38;;;;;;;2.77;2.57;;;-2.00;99.90;;;;;;5048044;28;20552;-49
2022/03/09 02:52:05;;;;;;;3.47;2.70;;;-2.00;99.90;;;;;;5053667;28;20545;-49
2022/03/09 02:54:32;;;;;;;4.17;2.77;;;-2.00;99.90;;;;;;5053661;28;20540;-49
2022/03/09 02:57:00;;;;;;;2.93;2.73;;;-2.00;99.90;;;;;;5053349;28;20497;-49
2022/03/09 02:59:27;;;;;;;2.73;2.53;;;-2.00;99.90;;;;;;5053126;28;20458;-49
2022/03/09 03:01:53;;;;;;;3.40;2.10;;;-2.00;99.90;;;;;;5053302;28;20560;-49
2022/03/09 03:04:20;;;;;;;4.27;2.60;;;-1.90;99.90;;;;;;5049718;28;20913;-49
2022/03/09 03:06:46;;;;;;;3.67;2.50;;;-2.00;99.90;;;;;;5053780;28;21021;-49
2022/03/09 03:09:13;;;;;;;2.60;2.50;;;-2.00;99.90;;;;;;5052787;28;20564;-49
2022/03/09 03:11:39;;;;;;;2.50;2.40;;;-2.10;99.90;;;;;;5052726;28;20529;-49
2022/03/09 03:14:07;;;;;;;3.00;2.83;;;-2.00;99.90;;;;;;5050877;28;20511;-49
2022/03/09 03:16:34;;;;;;;3.90;2.73;;;-2.00;99.90;;;;;;5048214;28;21145;-49
2022/03/09 03:19:00;;;;;;;2.30;2.20;;;-2.00;99.90;;;;;;5051161;28;20481;-49
2022/03/09 03:21:27;;;;;;;3.23;3.00;;;-1.90;99.90;;;;;;5051418;28;20565;-49
2022/03/09 03:23:53;;;;;;;2.80;2.70;;;-2.00;99.90;;;;;;5053188;28;20534;-49
2022/03/09 03:26:20;;;;;;;2.70;2.50;;;-2.00;99.90;;;;;;5046205;28;20533;-50
2022/03/09 03:28:46;;;;;;;2.90;2.70;;;-2.00;99.90;;;;;;5042710;28;21070;-49
2022/03/09 03:31:14;;;;;;;3.10;2.80;;;-2.10;99.90;;;;;;5052618;28;20477;-49
2022/03/09 03:33:41;;;;;;;3.33;3.03;;;-2.10;99.90;;;;;;5052689;28;20486;-49
2022/03/09 03:36:07;;;;;;;2.97;2.77;;;-2.10;99.90;;;;;;5052643;28;21058;-49
2022/03/09 03:38:34;;;;;;;3.20;3.00;;;-2.10;99.90;;;;;;5051798;28;20570;-49
2022/03/09 03:41:00;;;;;;;3.00;2.90;;;-2.20;99.90;;;;;;5051824;28;20580;-51
2022/03/09 03:43:27;;;;;;;3.07;2.10;;;-2.10;99.90;;;;;;5052389;28;20876;-49
2022/03/09 03:45:53;;;;;;;3.33;3.00;;;-2.20;99.90;;;;;;5053224;28;20457;-49
2022/03/09 03:48:21;;;;;;;2.57;2.47;;;-2.20;99.90;;;;;;5047805;28;20493;-49
2022/03/09 03:50:48;;;;;;;3.03;2.77;;;-2.20;99.90;;;;;;5048941;28;20511;-49
2022/03/09 03:53:14;;;;;;;3.10;2.60;;;-2.20;99.90;;;;;;5044319;28;20893;-49
2022/03/09 03:55:41;;;;;;;2.97;2.80;;;-2.20;99.90;;;;;;5050354;28;20549;-49
2022/03/09 03:58:07;;;;;;;3.00;2.80;;;-2.20;99.90;;;;;;5052141;28;20565;-51
2022/03/09 04:00:34;;;;;;;3.37;2.80;;;-2.20;99.90;;;;;;5047693;28;20572;-50
2022/03/09 04:03:01;;;;;;;8.80;2.53;;;-2.20;99.90;;;;;;5051889;28;20541;-50
2022/03/09 04:05:29;;;;;;;2.60;2.50;;;-2.20;99.90;;;;;;5051905;28;20466;-49
2022/03/09 04:07:56;;;;;;;3.40;3.10;;;-2.30;99.90;;;;;;5044171;28;20594;-50
2022/03/09 04:10:22;;;;;;;3.20;3.00;;;-2.30;99.90;;;;;;5039319;28;20550;-49
2022/03/09 04:12:49;;;;;;;2.70;2.60;;;-2.40;99.90;;;;;;5051407;28;20450;-50
2022/03/09 04:15:15;;;;;;;3.40;3.10;;;-2.40;99.90;;;;;;5052310;28;20893;-50
2022/03/09 04:17:44;;;;;;;2.63;2.43;;;-2.50;99.90;;;;;;5051371;28;20577;-49
2022/03/09 04:20:12;;;;;;;3.33;3.07;;;-2.50;99.90;;;;;;5052834;28;20549;-50
2022/03/09 04:22:40;;;;;;;3.00;2.57;;;-2.50;99.90;;;;;;5048223;28;20550;-49
2022/03/09 04:25:08;;;;;;;5.80;3.90;;;-2.40;99.90;;;;;;5061317;28;20484;-49
2022/03/09 04:27:35;;;;;;;3.87;3.40;;;-2.30;99.90;;;;;;5060888;28;20506;-49
2022/03/09 04:30:02;;;;;;;4.10;3.40;;;-2.40;99.90;;;;;;5066430;28;20462;-48
2022/03/09 04:32:28;;;;;;;3.50;3.20;;;-2.40;99.90;;;;;;5067518;28;20451;-47
2022/03/09 04:34:55;;;;;;;3.10;2.90;;;-2.40;99.90;;;;;;5063221;28;20484;-48
2022/03/09 04:37:22;;;;;;;3.53;3.30;;;-2.30;99.90;;;;;;5051805;28;20552;-48
2022/03/09 04:39:50;;;;;;;3.87;3.53;;;-2.30;99.90;;;;;;5051404;28;20511;-54
2022/03/09 04:42:16;;;;;;;2.97;2.77;;;-2.30;99.90;;;;;;5039140;28;20580;-54
2022/03/09 04:44:43;;;;;;;3.00;2.90;;;-2.40;99.90;;;;;;5052625;28;20533;-53
2022/03/09 04:47:09;;;;;;;3.17;2.97;;;-2.40;99.90;;;;;;5047613;28;20482;-55
2022/03/09 04:49:36;;;;;;;3.53;2.93;;;-2.40;99.90;;;;;;5051201;28;21065;-54
2022/03/09 04:52:03;;;;;;;3.30;3.00;;;-2.50;99.90;;;;;;5048312;28;20545;-54
2022/03/09 04:54:29;;;;;;;3.50;3.30;;;-2.50;99.90;;;;;;5051213;28;20549;-54
2022/03/09 04:56:57;;;;;;;3.63;3.30;;;-2.40;99.90;;;;;;5051518;28;20497;-53
2022/03/09 04:59:24;;;;;;;3.30;3.10;;;-2.50;99.90;;;;;;5051730;28;20541;-54
2022/03/09 05:01:50;;;;;;;3.10;3.00;;;-2.50;99.90;;;;;;5045443;28;20568;-54
2022/03/09 05:04:17;;;;;;;3.00;2.80;;;-2.50;99.90;;;;;;5046133;28;20545;-54
2022/03/09 05:06:43;;;;;;;4.60;2.73;;;-2.50;99.90;;;;;;5050328;28;20542;-54
2022/03/09 05:09:10;;;;;;;3.30;3.10;;;-2.50;99.90;;;;;;5051603;28;20989;-53
2022/03/09 05:11:36;;;;;;;4.17;3.77;;;-2.50;99.90;;;;;;5046459;28;20545;-54
2022/03/09 05:14:04;;;;;;;3.23;3.03;;;-2.60;99.90;;;;;;5044742;28;20552;-54
2022/03/09 05:16:31;;;;;;;7.27;3.03;;;-2.50;99.90;;;;;;5045292;28;20560;-53
2022/03/09 05:18:57;;;;;;;3.33;3.03;;;-2.50;99.90;;;;;;5048614;28;20924;-53
2022/03/09 05:21:24;;;;;;;3.23;3.03;;;-2.50;99.90;;;;;;5051185;28;20561;-54
2022/03/09 05:23:50;;;;;;;3.23;2.93;;;-2.40;99.90;;;;;;5051618;28;20537;-53
2022/03/09 05:26:17;;;;;;;4.17;3.50;;;-2.30;99.90;;;;;;5043050;28;20576;-53
2022/03/09 05:28:43;;;;;;;4.47;4.17;;;-2.20;99.90;;;;;;5038945;28;20508;-53
2022/03/09 05:31:11;;;;;;;5.40;4.90;;;-2.30;99.90;;;;;;5049760;28;20546;-54
2022/03/09 05:33:38;;;;;;;4.20;3.90;;;-2.40;99.90;;;;;;5048916;28;20500;-54
2022/03/09 05:36:06;;;;;;;7.03;6.33;;;-2.50;99.90;;;;;;5050631;28;20480;-54
2022/03/09 05:38:32;;;;;;;6.00;5.40;;;-2.50;99.90;;;;;;5048030;28;20553;-54
2022/03/09 05:40:59;;;;;;;6.33;5.73;;;-2.50;99.90;;;;;;5042729;28;20485;-54
2022/03/09 05:43:25;;;;;;;6.30;5.70;;;-2.50;99.90;;;;;;5043317;28;20482;-54
2022/03/09 05:45:52;;;;;;;5.83;5.33;;;-2.60;99.90;;;;;;5045398;28;20546;-53
2022/03/09 05:48:20;;;;;;;6.70;6.10;;;-2.60;99.90;;;;;;5049747;28;21062;-56
2022/03/09 05:50:46;;;;;;;7.85;7.05;;;-2.50;99.90;;;;;;5048616;28;20539;-53
2022/03/09 05:53:13;;;;;;;13.80;8.90;;;-2.50;99.90;;;;;;5050837;28;20326;-53
2022/03/09 05:55:39;;;;;;;14.40;8.77;;;-2.50;99.90;;;;;;5050013;28;20545;-54
2022/03/09 05:58:06;;;;;;;14.03;9.43;;;-2.50;99.90;;;;;;5051030;28;20557;-53
2022/03/09 06:00:34;;;;;;;11.67;8.10;;;-2.50;99.90;;;;;;5049930;28;21038;-53
2022/03/09 06:03:01;;;;;;;10.10;8.00;;;-2.40;99.90;;;;;;5049154;28;20496;-53
2022/03/09 06:05:29;;;;;;;8.13;7.37;;;-2.40;99.90;;;;;;5048733;28;20533;-53
2022/03/09 06:07:55;;;;;;;9.10;8.10;;;-2.30;99.90;;;;;;5047810;28;20569;-53
2022/03/09 06:10:22;;;;;;;19.80;13.07;;;-2.30;99.90;;;;;;5045214;28;20592;-53
2022/03/09 06:12:48;;;;;;;14.80;10.30;;;-2.20;99.90;;;;;;5049627;28;20533;-55
2022/03/09 06:15:15;;;;;;;11.20;9.83;;;-2.20;99.90;;;;;;5048473;28;20549;-53
2022/03/09 06:17:46;;;;;;;8.77;7.17;;;-2.10;99.90;;;;;;5044975;28;20517;-54
2022/03/09 06:20:15;;;;;;;7.83;6.97;;;-2.20;99.90;;;;;;5046182;28;20665;-54
2022/03/09 06:22:42;;;;;;;10.50;8.20;;;-2.30;99.90;;;;;;5046794;28;20492;-54
2022/03/09 06:25:10;;;;;;;7.40;6.70;;;-2.30;99.90;;;;;;5048896;28;20549;-53
2022/03/09 06:27:41;;;;;;;8.60;7.00;;;-2.20;99.90;;;;;;5048966;28;20590;-54
2022/03/09 06:30:09;;;;;;;8.00;7.07;;;-2.10;99.90;;;;;;5048693;28;20442;-54
2022/03/09 06:32:36;;;;;;;10.43;8.47;;;-2.00;99.90;;;;;;5037266;28;20526;-60
2022/03/09 06:35:02;;;;;;;9.43;7.97;;;-1.90;99.90;;;;;;5042509;28;20569;-49
2022/03/09 06:37:29;;;;;;;12.60;7.60;;;-1.70;99.90;;;;;;5047758;28;20561;-49
2022/03/09 06:39:57;;;;;;;10.70;7.63;;;-1.60;99.90;;;;;;5049139;28;20541;-49
2022/03/09 06:42:24;;;;;;;7.90;6.80;;;-1.50;99.90;;;;;;5050426;28;20482;-50
2022/03/09 06:44:51;;;;;;;10.70;6.90;;;-1.30;99.90;;;;;;5046526;28;20445;-49
2022/03/09 06:47:17;;;;;;;8.53;7.10;;;-1.30;99.90;;;;;;5053680;28;20501;-50
2022/03/09 06:49:44;;;;;;;10.33;7.10;;;-1.10;99.90;;;;;;5053057;28;20480;-49
2022/03/09 06:52:11;;;;;;;7.83;7.00;;;-1.10;99.90;;;;;;5041914;28;20510;-49
2022/03/09 06:54:37;;;;;;;12.47;7.10;;;-0.90;99.90;;;;;;5049601;28;20536;-56
2022/03/09 06:57:05;;;;;;;13.63;8.53;;;-0.80;99.90;;;;;;5055921;28;20584;-49
2022/03/09 06:59:32;;;;;;;14.00;7.47;;;-0.80;99.90;;;;;;5047297;28;20533;-50
2022/03/09 07:01:58;;;;;;;9.67;6.63;;;-0.70;99.90;;;;;;5046597;28;21100;-49
2022/03/09 07:04:25;;;;;;;14.73;7.40;;;-0.50;99.90;;;;;;5043501;28;20534;-48
2022/03/09 07:06:51;;;;;;;11.30;7.20;;;-0.40;99.90;;;;;;5048835;28;20905;-49
2022/03/09 07:09:18;;;;;;;14.13;7.67;;;-0.20;99.90;;;;;;5044968;28;21022;-49
2022/03/09 07:11:45;;;;;;;7.20;6.50;;;0.00;99.90;;;;;;5048136;28;20496;-50
2022/03/09 07:14:13;;;;;;;9.90;6.37;;;0.20;99.90;;;;;;5054497;28;20473;-50
2022/03/09 07:16:40;;;;;;;8.93;6.70;;;0.50;99.90;;;;;;5054168;28;20556;-50
2022/03/09 07:19:07;;;;;;;9.63;6.93;;;0.60;99.90;;;;;;5054297;28;20450;-49
2022/03/09 07:21:33;;;;;;;12.70;6.63;;;0.70;99.90;;;;;;5053935;28;20532;-50
2022/03/09 07:24:00;;;;;;;11.27;6.90;;;0.80;99.90;;;;;;5049515;28;20542;-50
2022/03/09 07:26:26;;;;;;;11.03;7.17;;;1.00;99.90;;;;;;5054238;28;20529;-49
2022/03/09 07:28:54;;;;;;;8.47;7.67;;;1.10;99.90;;;;;;5051336;28;20509;-50
2022/03/09 07:31:21;;;;;;;15.83;7.30;;;1.20;99.90;;;;;;5055479;28;21035;-49
2022/03/09 07:33:48;;;;;;;9.10;6.20;;;1.40;99.90;;;;;;5055007;28;20474;-49
2022/03/09 07:36:14;;;;;;;9.70;7.13;;;1.60;99.90;;;;;;5052822;28;20470;-49
2022/03/09 07:38:41;;;;;;;14.40;7.87;;;1.70;97.50;;;;;;5052473;28;20466;-50
2022/03/09 07:41:08;;;;;;;9.47;8.13;;;1.90;99.90;;;;;;5045793;28;20540;-49
2022/03/09 07:43:34;;;;;;;11.20;7.30;;;2.10;76.30;;;;;;5045782;28;20463;-49
2022/03/09 07:46:00;;;;;;;8.00;7.17;;;2.30;25.50;;;;;;5054166;28;20533;-49
2022/03/09 07:48:29;;;;;;;11.17;7.67;;;2.50;26.50;;;;;;5052853;28;20569;-49
2022/03/09 07:50:55;;;;;;;10.20;6.60;;;2.80;30.50;;;;;;5048784;28;20844;-49
2022/03/09 07:53:22;;;;;;;14.53;7.30;;;3.10;42.80;;;;;;5045870;28;20518;-50
2022/03/09 07:55:49;;;;;;;12.90;8.47;;;3.60;53.90;;;;;;5041399;28;20463;-50
2022/03/09 07:58:15;;;;;;;15.47;8.07;;;3.90;62.20;;;;;;5050526;28;20557;-50
2022/03/09 08:00:42;;;;;;;14.20;8.30;;;4.40;70.30;;;;;;5050519;28;20525;-49
2022/03/09 08:03:09;;;;;;;16.30;10.30;;;4.80;83.40;;;;;;5050916;28;20569;-51
2022/03/09 08:05:36;;;;;;;13.60;9.13;;;5.00;88.20;;;;;;5033143;28;20939;-50
2022/03/09 08:08:03;;;;;;;10.73;7.27;;;5.50;97.00;;;;;;5052137;28;20549;-50
2022/03/09 08:10:30;;;;;;;7.83;7.00;;;6.10;99.90;;;;;;5052326;28;20562;-49
2022/03/09 08:12:57;;;;;;;12.53;7.10;;;6.50;99.90;;;;;;5052856;28;20450;-49
2022/03/09 08:15:23;;;;;;;9.73;7.30;;;6.70;99.90;;;;;;5052610;28;20529;-49
2022/03/09 08:17:50;;;;;;;12.03;6.47;;;6.80;99.90;;;;;;5052992;28;20545;-49
2022/03/09 08:20:16;;;;;;;6.93;5.27;;;6.70;99.90;;;;;;5052148;28;20533;-49
2022/03/09 08:22:44;;;;;;;13.93;6.83;;;6.80;99.90;;;;;;5052980;28;20568;-50
2022/03/09 08:25:11;;;;;;;13.53;7.27;;;7.10;99.90;;;;;;5053128;28;20549;-51
2022/03/09 08:27:37;;;;;;;11.10;6.93;;;7.20;99.90;;;;;;5052420;28;20604;-49
2022/03/09 08:30:05;;;;;;;14.60;7.13;;;7.50;99.90;;;;;;5052633;28;20891;-49
2022/03/09 08:32:31;;;;;;;12.33;7.73;;;8.00;99.90;;;;;;5052792;28;20474;-49
2022/03/09 08:34:58;;;;;;;24.53;9.00;;;8.60;99.90;;;;;;5053010;28;20997;-49
2022/03/09 08:37:24;;;;;;;15.43;7.87;;;9.20;99.90;;;;;;5052418;28;20493;-49
2022/03/09 08:39:52;;;;;;;12.00;8.23;;;8.80;99.90;;;;;;5052462;28;20532;-50
2022/03/09 08:42:19;;;;;;;12.73;7.80;;;9.20;1.40;;;;;;5051879;28;21074;-50
2022/03/09 08:44:45;;;;;;;28.23;8.67;;;9.40;99.90;;;;;;5052380;28;22222;-50
2022/03/09 08:47:12;;;;;;;20.80;8.77;;;9.40;99.90;;;;;;5048271;28;20544;-49
2022/03/09 08:49:39;;;;;;;10.87;7.37;;;9.00;99.90;;;;;;5045245;28;20527;-49
2022/03/09 08:52:06;;;;;;;16.13;7.73;;;9.30;99.90;;;;;;5051921;28;20822;-50
2022/03/09 08:54:33;;;;;;;10.20;7.47;;;9.60;99.90;;;;;;5052147;28;20521;-49
2022/03/09 08:57:01;;;;;;;17.13;8.40;;;10.20;99.90;;;;;;5047316;28;20462;-50
2022/03/09 08:59:27;;;;;;;8.40;5.97;;;11.00;99.90;;;;;;5046923;28;20525;-51
2022/03/09 09:01:54;;;;;;;12.03;6.20;;;10.70;99.90;;;;;;5041697;28;20570;-50
2022/03/09 09:04:20;;;;;;;10.23;5.73;;;10.80;99.90;;;;;;5047777;28;20907;-49
2022/03/09 09:06:47;;;;;;;10.43;6.17;;;11.00;99.90;;;;;;5051532;28;20560;-50
2022/03/09 09:09:14;;;;;;;5.40;4.90;;;12.00;99.90;;;;;;5047258;28;21094;-49
2022/03/09 09:11:41;;;;;;;5.40;4.90;;;12.40;99.90;;;;;;5053638;28;20455;-49
2022/03/09 09:14:09;;;;;;;10.47;6.43;;;12.80;99.90;;;;;;5046286;28;20453;-49
2022/03/09 09:16:35;;;;;;;8.47;5.97;;;12.80;99.90;;;;;;5047890;28;20518;-49
2022/03/09 09:19:03;;;;;;;5.87;4.63;;;14.10;99.90;;;;;;5045800;28;20481;-49
2022/03/09 09:21:29;;;;;;;5.57;5.07;;;13.20;99.90;;;;;;5050659;28;20532;-49
2022/03/09 09:23:56;;;;;;;7.53;5.83;;;12.80;99.90;;;;;;5046052;28;20561;-50
2022/03/09 09:26:22;;;;;;;6.73;5.43;;;12.40;99.90;;;;;;5054488;28;20530;-49
2022/03/09 09:28:49;;;;;;;7.30;5.50;;;12.90;99.90;;;;;;5058197;28;21007;-48
2022/03/09 09:31:17;;;;;;;14.43;6.00;;;12.60;99.90;;;;;;5052707;28;20554;-49
2022/03/09 09:33:43;;;;;;;11.40;6.60;;;12.50;99.90;;;;;;5052061;28;20544;-49
2022/03/09 09:36:10;;;;;;;12.67;6.77;;;12.80;99.90;;;;;;5059069;28;21091;-55
2022/03/09 09:38:36;;;;;;;8.70;5.90;;;12.30;99.90;;;;;;5040950;28;21118;-50
2022/03/09 09:41:05;;;;;;;7.77;5.70;;;12.20;99.90;;;;;;5046016;28;20531;-50
2022/03/09 09:43:32;;;;;;;7.10;5.70;;;12.30;99.90;;;;;;5042262;28;20888;-50
2022/03/09 09:45:59;;;;;;;7.97;6.40;;;12.60;99.90;;;;;;5045055;28;20931;-49
2022/03/09 09:48:27;;;;;;;9.57;8.00;;;13.00;99.90;;;;;;5050295;28;20527;-50
2022/03/09 09:50:54;;;;;;;16.03;7.43;;;12.90;99.90;;;;;;5052099;28;21002;-49
2022/03/09 09:53:23;;;;;;;13.97;7.73;;;14.00;99.90;;;;;;5050774;28;20442;-49
2022/03/09 09:55:49;;;;;;;7.00;6.30;;;13.60;99.90;;;;;;5052126;28;20537;-49
2022/03/09 09:58:20;;;;;;;9.20;5.37;;;13.90;99.90;;;;;;5044317;28;20548;-50
2022/03/09 10:00:47;;;;;;;9.97;5.97;;;14.60;99.90;;;;;;5050763;28;20577;-50
2022/03/09 10:03:13;;;;;;;9.40;7.50;;;14.00;99.90;;;;;;5047831;28;20568;-50
2022/03/09 10:05:41;;;;;;;7.27;5.60;;;13.70;99.90;;;;;;5049048;28;20902;-49
2022/03/09 10:08:10;;;;;;;7.80;5.90;;;14.10;99.90;;;;;;5052346;28;20556;-49
2022/03/09 10:10:38;;;;;;;7.40;6.13;;;13.80;99.90;;;;;;5049412;28;20931;-49
2022/03/09 10:13:14;;;;;;;6.50;5.70;;;13.00;99.90;;;;;;5056570;28;20533;-51
2022/03/09 10:15:41;;;;;;;7.00;4.83;;;13.40;99.90;;;;;;5048879;28;20527;-49
2022/03/09 10:18:20;;;;;;;6.20;5.30;;;13.60;99.90;;;;;;5049517;28;20548;-49
2022/03/09 10:20:50;;;;;;;9.10;6.23;;;14.20;99.90;;;;;;5057071;28;20484;-50
2022/03/09 10:23:18;;;;;;;8.53;5.70;;;14.30;99.90;;;;;;5055742;28;20588;-50
2022/03/09 10:25:47;;;;;;;10.90;6.10;;;14.00;99.90;;;;;;5044820;28;20471;-50
2022/03/09 10:28:14;;;;;;;20.30;9.10;;;14.20;99.90;;;;;;5059382;22;20605;-52
2022/03/09 10:30:43;;;;;;;7.23;6.30;;;15.40;99.90;;;;;;5045142;28;20564;-52
2022/03/09 10:33:12;;;;;;;6.70;5.27;;;14.40;99.90;;;;;;5038762;28;21224;-52
2022/03/09 10:35:41;;;;;;;5.33;4.83;;;14.50;99.90;;;;;;5045607;28;20465;-52
2022/03/09 10:38:21;;;;;;;9.43;6.80;;;14.00;99.90;;;;;;5047527;28;20473;-52
2022/03/09 10:40:50;;;;;;;7.77;6.40;;;13.80;99.90;;;;;;5044862;28;21314;-52
2022/03/09 10:43:19;;;;;;;9.37;8.30;;;14.20;99.90;;;;;;5054806;28;20484;-52
2022/03/09 10:46:00;;;;;;;8.37;6.93;;;14.30;99.90;;;;;;5048447;28;20534;-52
2022/03/09 10:48:26;;;;;;;10.00;6.10;;;13.70;99.90;;;;;;5054176;28;20545;-52
2022/03/09 10:50:54;;;;;;;10.73;7.40;;;13.00;99.90;;;;;;5054082;28;20500;-52
2022/03/09 10:53:22;;;;;;;8.80;6.00;;;13.70;99.90;;;;;;5054142;28;20453;-52
2022/03/09 10:55:50;;;;;;;9.70;6.00;;;13.70;99.90;;;;;;5054431;28;20541;-52
2022/03/09 10:58:18;;;;;;;9.10;6.70;;;13.90;99.90;;;;;;5054073;28;20473;-52
2022/03/09 11:00:46;;;;;;;10.27;6.80;;;13.80;99.90;;;;;;5053760;28;20461;-52
2022/03/09 11:03:15;;;;;;;8.50;5.40;;;13.60;99.90;;;;;;5054445;28;20561;-52
2022/03/09 11:05:51;;;;;;;8.97;7.10;;;13.50;99.90;;;;;;5054043;28;20540;-52
2022/03/09 11:08:18;;;;;;;10.63;7.20;;;13.00;99.90;;;;;;5053729;28;20465;-52
2022/03/09 11:10:47;;;;;;;7.10;5.93;;;12.70;99.90;;;;;;5054151;28;20520;-52
2022/03/09 11:13:15;;;;;;;7.53;6.80;;;12.60;99.90;;;;;;5053780;28;20990;-52
2022/03/09 11:15:43;;;;;;;10.23;6.10;;;12.60;99.90;;;;;;5053902;28;20454;-52
2022/03/09 11:18:13;;;;;;;10.67;7.87;;;13.40;99.90;;;;;;5053523;28;20466;-52
2022/03/09 11:20:40;;;;;;;7.50;6.33;;;14.00;99.90;;;;;;5054005;28;20833;-52
2022/03/09 11:23:06;;;;;;;9.50;7.23;;;14.00;99.90;;;;;;5053792;28;20533;-53
2022/03/09 11:25:34;;;;;;;10.00;6.80;;;13.40;99.90;;;;;;5052676;28;20989;-52
2022/03/09 11:28:03;;;;;;;7.73;6.80;;;12.70;99.90;;;;;;5053423;28;20510;-52
2022/03/09 11:30:33;;;;;;;11.07;9.30;;;13.20;99.90;;;;;;5053153;28;20548;-52
2022/03/09 11:33:01;;;;;;;12.73;8.20;;;13.30;99.90;;;;;;5052820;28;20464;-52
2022/03/09 11:35:32;;;;;;;9.70;8.37;;;12.90;99.90;;;;;;5052363;28;20446;-52
2022/03/09 11:37:59;;;;;;;9.93;7.43;;;13.50;99.90;;;;;;5053007;28;21062;-52
2022/03/09 11:40:26;;;;;;;9.83;8.33;;;13.50;99.90;;;;;;5053303;28;20542;-52
2022/03/09 11:42:53;;;;;;;7.87;7.07;;;14.10;99.90;;;;;;5053491;28;20564;-51
2022/03/09 11:45:33;;;;;;;9.13;8.00;;;13.80;99.90;;;;;;5049551;28;20541;-52
2022/03/09 11:48:03;;;;;;;11.13;8.43;;;13.70;99.90;;;;;;5054311;28;20465;-51
2022/03/09 11:50:33;;;;;;;9.97;7.83;;;13.40;99.90;;;;;;5057941;28;20453;-52
2022/03/09 11:53:01;;;;;;;8.00;7.30;;;12.90;99.90;;;;;;5052817;28;21039;-52
2022/03/09 11:55:29;;;;;;;11.40;8.83;;;12.70;99.90;;;;;;5053142;28;20481;-52
2022/03/09 11:58:12;;;;;;;8.33;7.50;;;12.70;99.90;;;;;;5053296;28;20564;-52
2022/03/09 12:00:59;;;;;;;9.77;7.87;;;12.70;99.90;;;;;;5052717;28;20525;-52
2022/03/09 12:03:40;;;;;;;9.40;7.70;;;12.70;99.90;;;;;;5052582;28;20509;-51
2022/03/09 12:06:31;;;;;;;8.50;7.70;;;12.90;99.90;;;;;;5052558;28;20484;-52
2022/03/09 12:08:59;;;;;;;9.20;8.30;;;12.90;99.90;;;;;;5051194;28;20888;-52
2022/03/09 12:11:25;;;;;;;18.43;13.40;;;12.90;99.90;;;;;;5041105;28;20475;-52
2022/03/09 12:13:52;;;;;;;9.80;8.80;;;13.20;99.90;;;;;;5052675;28;20525;-52
2022/03/09 12:16:22;;;;;;;10.97;8.63;;;13.20;99.90;;;;;;5051985;28;20533;-52
2022/03/09 12:19:13;;;;;;;12.00;8.40;;;13.10;99.90;;;;;;5052919;28;20689;-52
2022/03/09 12:22:03;;;;;;;10.60;9.20;;;12.80;99.90;;;;;;5052471;28;20480;-52
2022/03/09 12:24:39;;;;;;;9.90;8.90;;;13.10;99.90;;;;;;5051692;28;20981;-52
2022/03/09 12:27:27;;;;;;;8.70;7.70;;;13.20;99.90;;;;;;5052110;28;20428;-53
2022/03/09 12:29:53;;;;;;;10.93;8.53;;;13.30;99.90;;;;;;5052672;28;20438;-51
2022/03/09 12:32:22;;;;;;;9.27;7.50;;;13.20;99.90;;;;;;5051671;28;20877;-52
2022/03/09 12:34:49;;;;;;;9.03;7.50;;;13.10;99.90;;;;;;5051572;28;20438;-52
2022/03/09 12:37:21;;;;;;;9.50;8.47;;;13.20;99.90;;;;;;5051488;28;20501;-51
2022/03/09 12:39:52;;;;;;;8.40;6.80;;;13.20;99.90;;;;;;5040047;28;20449;-52
2022/03/09 12:42:19;;;;;;;8.30;7.17;;;13.30;99.90;;;;;;5032760;28;20550;-51
2022/03/09 12:44:47;;;;;;;9.30;7.17;;;13.40;99.90;;;;;;5036470;28;20518;-52
2022/03/09 12:47:14;;;;;;;7.43;6.73;;;13.60;99.90;;;;;;5052346;28;20466;-52
2022/03/09 12:49:43;;;;;;;9.57;7.63;;;13.30;99.90;;;;;;5052300;28;20442;-52